createdAt,value
2023-04-16T00:01:04.414Z,0.60
2023-04-16T00:03:31.432Z,0.63
2023-04-16T00:05:59.211Z,0.68
2023-04-16T00:08:26.041Z,0.70
2023-04-16T00:10:55.491Z,0.80
2023-04-16T00:13:22.728Z,0.63
2023-04-16T00:15:49.637Z,0.60
2023-04-16T00:18:16.387Z,0.70
2023-04-16T00:20:43.082Z,0.60
2023-04-16T00:23:09.805Z,0.70
2023-04-16T00:25:36.559Z,0.60
2023-04-16T00:28:04.591Z,0.80
2023-04-16T00:30:32.123Z,0.70
2023-04-16T00:32:59.018Z,0.50
2023-04-16T00:35:25.792Z,0.67
2023-04-16T00:37:52.576Z,0.63
2023-04-16T00:40:19.263Z,0.65
2023-04-16T00:42:46.209Z,0.77
2023-04-16T00:45:13.000Z,0.77
2023-04-16T00:47:39.899Z,0.50
2023-04-16T00:50:07.456Z,0.60
2023-04-16T00:52:34.814Z,0.65
2023-04-16T00:55:01.789Z,0.80
2023-04-16T00:57:28.503Z,0.68
2023-04-16T00:59:56.317Z,0.73
2023-04-16T01:02:23.474Z,0.60
2023-04-16T01:04:51.605Z,0.63
2023-04-16T01:07:18.403Z,0.70
2023-04-16T01:09:45.322Z,0.60
2023-04-16T01:12:12.125Z,0.60
2023-04-16T01:14:38.909Z,0.70
2023-04-16T01:17:05.752Z,0.60
2023-04-16T01:19:32.577Z,0.60
2023-04-16T01:21:59.519Z,0.70
2023-04-16T01:24:26.474Z,0.60
2023-04-16T01:26:53.321Z,0.50
2023-04-16T01:29:20.325Z,0.80
2023-04-16T01:31:48.834Z,0.80
2023-04-16T01:34:23.097Z,0.63
2023-04-16T01:36:49.875Z,0.52
2023-04-16T01:39:17.153Z,0.90
2023-04-16T01:41:43.891Z,0.65
2023-04-16T01:44:10.849Z,0.70
2023-04-16T01:46:38.114Z,0.63
2023-04-16T01:49:06.553Z,0.70
2023-04-16T01:51:33.402Z,0.70
2023-04-16T01:54:00.917Z,0.70
2023-04-16T01:56:27.758Z,0.60
2023-04-16T01:58:54.525Z,0.60
2023-04-16T02:01:21.746Z,0.68
2023-04-16T02:03:49.366Z,0.70
2023-04-16T02:06:16.385Z,0.70
2023-04-16T02:08:43.264Z,0.60
2023-04-16T02:11:10.163Z,0.73
2023-04-16T02:13:37.006Z,0.70
2023-04-16T02:16:04.202Z,1.00
2023-04-16T02:18:48.202Z,0.80
2023-04-16T02:21:16.979Z,0.70
2023-04-16T02:23:47.440Z,0.47
2023-04-16T02:26:14.206Z,0.63
2023-04-16T02:28:41.272Z,0.80
2023-04-16T02:31:10.162Z,0.60
2023-04-16T02:33:42.024Z,0.60
2023-04-16T02:36:10.540Z,0.55
2023-04-16T02:38:37.563Z,0.57
2023-04-16T02:41:04.388Z,0.52
2023-04-16T02:43:31.309Z,0.60
2023-04-16T02:45:59.309Z,0.50
2023-04-16T02:48:26.241Z,0.60
2023-04-16T02:50:53.001Z,0.70
2023-04-16T02:53:19.776Z,0.70
2023-04-16T02:55:54.075Z,0.55
2023-04-16T02:58:22.045Z,0.60
2023-04-16T03:00:48.806Z,0.50
2023-04-16T03:03:15.969Z,0.50
2023-04-16T03:05:43.026Z,0.65
2023-04-16T03:08:10.755Z,0.57
2023-04-16T03:10:37.815Z,0.68
2023-04-16T03:13:05.063Z,0.60
2023-04-16T03:15:31.886Z,0.55
2023-04-16T03:17:59.295Z,0.50
2023-04-16T03:20:26.206Z,0.70
2023-04-16T03:22:54.473Z,0.57
2023-04-16T03:25:21.186Z,0.77
2023-04-16T03:27:47.993Z,0.60
2023-04-16T03:30:16.579Z,0.68
2023-04-16T03:32:43.991Z,0.60
2023-04-16T03:35:11.553Z,0.57
2023-04-16T03:37:38.549Z,0.60
2023-04-16T03:40:07.046Z,0.55
2023-04-16T03:42:33.826Z,0.60
2023-04-16T03:45:00.995Z,0.50
2023-04-16T03:47:28.289Z,0.70
2023-04-16T03:49:58.842Z,0.65
2023-04-16T03:52:25.799Z,0.60
2023-04-16T03:54:53.577Z,0.60
2023-04-16T03:57:26.663Z,0.55
2023-04-16T03:59:57.782Z,0.60
2023-04-16T04:02:27.118Z,0.60
2023-04-16T04:04:54.157Z,0.67
2023-04-16T04:07:21.136Z,0.70
2023-04-16T04:09:47.912Z,0.60
2023-04-16T04:12:15.296Z,0.57
2023-04-16T04:14:43.738Z,0.55
2023-04-16T04:17:10.624Z,0.40
2023-04-16T04:19:40.252Z,0.50
2023-04-16T04:22:09.679Z,0.50
2023-04-16T04:24:37.876Z,0.50
2023-04-16T04:27:04.687Z,0.60
2023-04-16T04:29:32.161Z,0.50
2023-04-16T04:31:59.101Z,0.60
2023-04-16T04:34:25.929Z,0.60
2023-04-16T04:36:55.696Z,0.50
2023-04-16T04:39:22.456Z,0.65
2023-04-16T04:41:50.193Z,0.60
2023-04-16T04:44:20.204Z,0.70
2023-04-16T04:46:46.899Z,0.52
2023-04-16T04:49:13.776Z,0.50
2023-04-16T04:51:40.648Z,0.50
2023-04-16T04:54:07.408Z,0.70
2023-04-16T04:56:34.335Z,0.55
2023-04-16T04:59:01.143Z,0.50
2023-04-16T05:01:27.986Z,0.60
2023-04-16T05:03:54.769Z,0.50
2023-04-16T05:06:21.586Z,0.60
2023-04-16T05:08:48.276Z,0.60
2023-04-16T05:11:15.738Z,0.57
2023-04-16T05:13:42.376Z,0.55
2023-04-16T05:16:09.362Z,0.60
2023-04-16T05:18:36.196Z,0.50
2023-04-16T05:21:02.986Z,0.43
2023-04-16T05:23:29.800Z,0.55
2023-04-16T05:25:56.554Z,0.60
2023-04-16T05:28:23.350Z,0.55
2023-04-16T05:30:50.730Z,0.60
2023-04-16T05:33:17.428Z,0.60
2023-04-16T05:35:44.273Z,0.63
2023-04-16T05:38:11.071Z,0.50
2023-04-16T05:40:38.076Z,0.55
2023-04-16T05:43:04.863Z,0.50
2023-04-16T05:45:33.346Z,0.40
2023-04-16T05:48:00.330Z,0.40
2023-04-16T05:50:27.191Z,0.47
2023-04-16T05:52:53.895Z,0.60
2023-04-16T05:55:20.797Z,0.70
2023-04-16T05:57:47.500Z,0.40
2023-04-16T06:00:14.505Z,0.57
2023-04-16T06:02:41.583Z,0.50
2023-04-16T06:05:08.937Z,0.30
2023-04-16T06:07:35.768Z,0.50
2023-04-16T06:10:02.560Z,0.40
2023-04-16T06:12:29.370Z,0.45
2023-04-16T06:14:56.199Z,0.50
2023-04-16T06:17:23.006Z,0.60
2023-04-16T06:19:49.686Z,0.65
2023-04-16T06:22:16.549Z,0.50
2023-04-16T06:24:43.321Z,0.40
2023-04-16T06:27:10.462Z,0.52
2023-04-16T06:29:41.677Z,0.70
2023-04-16T06:32:09.031Z,0.40
2023-04-16T06:34:36.003Z,0.50
2023-04-16T06:37:02.819Z,0.57
2023-04-16T06:39:29.543Z,0.50
2023-04-16T06:41:56.334Z,0.50
2023-04-16T06:44:23.160Z,0.60
2023-04-16T06:46:50.979Z,0.40
2023-04-16T06:49:17.750Z,0.50
2023-04-16T06:51:44.605Z,0.43
2023-04-16T06:54:11.364Z,0.55
2023-04-16T06:56:38.138Z,0.47
2023-04-16T06:59:05.436Z,0.50
2023-04-16T07:01:32.302Z,0.60
2023-04-16T07:04:00.241Z,0.43
2023-04-16T07:06:27.184Z,0.52
2023-04-16T07:08:54.970Z,0.63
2023-04-16T07:11:22.873Z,0.60
2023-04-16T07:13:51.105Z,0.60
2023-04-16T07:16:18.275Z,0.90
2023-04-16T07:18:45.154Z,0.50
2023-04-16T07:21:11.994Z,0.52
2023-04-16T07:23:38.806Z,0.68
2023-04-16T07:26:05.870Z,0.47
2023-04-16T07:28:33.728Z,0.70
2023-04-16T07:31:00.676Z,0.60
2023-04-16T07:33:28.500Z,0.50
2023-04-16T07:35:56.437Z,0.60
2023-04-16T07:38:23.302Z,0.60
2023-04-16T07:40:51.492Z,0.63
2023-04-16T07:43:19.463Z,0.80
2023-04-16T07:45:46.376Z,1.02
2023-04-16T07:48:14.200Z,0.80
2023-04-16T07:50:43.575Z,0.90
2023-04-16T07:53:10.536Z,1.13
2023-04-16T07:55:38.295Z,0.90
2023-04-16T07:58:07.215Z,0.68
2023-04-16T08:00:34.078Z,0.70
2023-04-16T08:03:01.109Z,0.75
2023-04-16T08:05:28.058Z,0.77
2023-04-16T08:07:54.915Z,0.60
2023-04-16T08:10:22.014Z,0.70
2023-04-16T08:12:48.856Z,0.63
2023-04-16T08:15:15.900Z,0.60
2023-04-16T08:17:42.694Z,0.80
2023-04-16T08:20:11.305Z,0.70
2023-04-16T08:22:40.496Z,0.80
2023-04-16T08:25:08.864Z,0.53
2023-04-16T08:27:35.651Z,0.83
2023-04-16T08:30:04.000Z,0.60
2023-04-16T08:32:30.929Z,0.60
2023-04-16T08:34:57.940Z,0.60
2023-04-16T08:37:25.557Z,0.70
2023-04-16T08:39:52.313Z,0.70
2023-04-16T08:42:32.485Z,0.70
2023-04-16T08:45:07.270Z,0.70
2023-04-16T08:47:36.975Z,0.80
2023-04-16T08:50:05.671Z,0.70
2023-04-16T08:52:32.952Z,0.70
2023-04-16T08:55:11.954Z,0.60
2023-04-16T08:57:53.410Z,0.60
2023-04-16T09:00:20.831Z,0.90
2023-04-16T09:02:48.277Z,0.80
2023-04-16T09:05:20.743Z,0.60
2023-04-16T09:07:48.417Z,0.70
2023-04-16T09:10:16.045Z,0.80
2023-04-16T09:12:43.584Z,0.80
2023-04-16T09:15:11.752Z,0.63
2023-04-16T09:17:39.194Z,0.70
2023-04-16T09:20:08.878Z,1.00
2023-04-16T09:22:36.673Z,0.73
2023-04-16T09:25:03.939Z,0.77
2023-04-16T09:27:31.717Z,0.60
2023-04-16T09:29:58.852Z,0.60
2023-04-16T09:32:27.898Z,0.50
2023-04-16T09:35:00.626Z,0.60
2023-04-16T09:37:31.909Z,0.70
2023-04-16T09:40:00.766Z,0.70
2023-04-16T09:42:29.528Z,0.63
2023-04-16T09:44:59.426Z,0.60
2023-04-16T09:47:42.629Z,0.50
2023-04-16T09:50:15.344Z,0.70
2023-04-16T09:52:52.766Z,0.55
2023-04-16T09:55:23.747Z,0.50
2023-04-16T09:57:58.991Z,0.73
2023-04-16T10:00:26.081Z,0.60
2023-04-16T10:03:05.426Z,0.70
2023-04-16T10:05:32.329Z,0.73
2023-04-16T10:08:02.352Z,0.80
2023-04-16T10:10:29.737Z,0.80
2023-04-16T10:12:57.768Z,0.60
2023-04-16T10:15:25.111Z,0.70
2023-04-16T10:17:53.708Z,0.70
2023-04-16T10:20:20.956Z,0.90
2023-04-16T10:22:47.972Z,0.80
2023-04-16T10:25:15.199Z,0.68
2023-04-16T10:27:42.193Z,0.70
2023-04-16T10:30:10.921Z,0.68
2023-04-16T10:32:38.583Z,0.70
2023-04-16T10:35:06.178Z,0.60
2023-04-16T10:37:33.525Z,0.70
2023-04-16T10:40:00.351Z,0.80
2023-04-16T10:42:27.522Z,0.60
2023-04-16T10:44:54.370Z,0.80
2023-04-16T10:47:24.886Z,0.88
2023-04-16T10:49:52.197Z,0.82
2023-04-16T10:52:18.994Z,0.90
2023-04-16T10:54:50.488Z,0.73
2023-04-16T10:57:19.502Z,0.73
2023-04-16T10:59:48.624Z,0.60
2023-04-16T11:02:19.551Z,0.50
2023-04-16T11:04:50.213Z,0.70
2023-04-16T11:07:22.475Z,0.73
2023-04-16T11:10:02.037Z,0.70
2023-04-16T11:12:47.221Z,0.60
2023-04-16T11:15:15.756Z,0.70
2023-04-16T11:17:47.888Z,0.60
2023-04-16T11:20:26.657Z,0.50
2023-04-16T11:22:55.951Z,0.70
2023-04-16T11:25:33.925Z,0.77
2023-04-16T11:28:02.255Z,0.52
2023-04-16T11:30:31.032Z,0.73
2023-04-16T11:32:58.082Z,0.50
2023-04-16T11:35:25.295Z,0.70
2023-04-16T11:37:56.352Z,0.70
2023-04-16T11:40:23.712Z,0.60
2023-04-16T11:42:50.582Z,0.50
2023-04-16T11:45:19.211Z,0.52
2023-04-16T11:47:55.384Z,0.50
2023-04-16T11:50:28.791Z,0.50
2023-04-16T11:52:57.588Z,0.55
2023-04-16T11:55:24.674Z,0.30
2023-04-16T11:57:51.974Z,0.60
2023-04-16T12:00:23.679Z,0.45
2023-04-16T12:02:53.783Z,0.60
2023-04-16T12:05:31.628Z,0.57
2023-04-16T12:07:59.590Z,0.63
2023-04-16T12:10:27.137Z,0.80
2023-04-16T12:12:53.992Z,0.65
2023-04-16T12:15:20.917Z,0.70
2023-04-16T12:17:48.682Z,0.60
2023-04-16T12:20:15.758Z,0.40
2023-04-16T12:22:46.916Z,0.50
2023-04-16T12:25:18.176Z,0.55
2023-04-16T12:27:55.544Z,0.60
2023-04-16T12:30:24.171Z,0.60
2023-04-16T12:33:10.625Z,0.60
2023-04-16T12:35:37.394Z,0.70
2023-04-16T12:38:04.190Z,0.50
2023-04-16T12:40:31.038Z,0.57
2023-04-16T12:42:57.817Z,0.50
2023-04-16T12:45:24.823Z,0.50
2023-04-16T12:47:51.728Z,0.60
2023-04-16T12:50:18.987Z,0.35
2023-04-16T12:52:45.949Z,0.60
2023-04-16T12:55:14.157Z,0.60
2023-04-16T12:57:41.242Z,0.52
2023-04-16T13:00:08.513Z,0.50
2023-04-16T13:02:35.347Z,10.70
2023-04-16T13:05:02.137Z,0.50
2023-04-16T13:07:31.698Z,0.80
2023-04-16T13:09:58.436Z,0.40
2023-04-16T13:12:25.210Z,0.63
2023-04-16T13:14:51.977Z,0.50
2023-04-16T13:17:18.772Z,0.50
2023-04-16T13:19:45.684Z,0.60
2023-04-16T13:22:12.857Z,0.75
2023-04-16T13:24:39.667Z,0.60
2023-04-16T13:27:08.286Z,0.50
2023-04-16T13:29:37.782Z,0.50
2023-04-16T13:32:04.848Z,0.60
2023-04-16T13:34:32.800Z,0.50
2023-04-16T13:37:02.305Z,0.43
2023-04-16T13:39:29.020Z,0.60
2023-04-16T13:41:55.748Z,0.52
2023-04-16T13:44:22.518Z,0.50
2023-04-16T13:46:49.703Z,0.50
2023-04-16T13:49:16.568Z,0.50
2023-04-16T13:51:44.719Z,0.32
2023-04-16T13:54:11.796Z,0.40
2023-04-16T13:56:38.944Z,0.43
2023-04-16T13:59:06.802Z,0.60
2023-04-16T14:01:33.651Z,0.70
2023-04-16T14:04:06.116Z,0.50
2023-04-16T14:06:34.333Z,0.50
2023-04-16T14:09:01.700Z,1.20
2023-04-16T14:11:28.710Z,0.60
2023-04-16T14:13:55.812Z,0.80
2023-04-16T14:16:22.869Z,1.40
2023-04-16T14:18:51.681Z,0.95
2023-04-16T14:21:18.595Z,0.90
2023-04-16T14:23:45.575Z,1.10
2023-04-16T14:26:12.429Z,2.85
2023-04-16T14:28:40.745Z,0.93
2023-04-16T14:31:07.617Z,2.55
2023-04-16T14:33:34.458Z,1.73
2023-04-16T14:36:03.229Z,7.15
2023-04-16T14:38:31.156Z,3.33
2023-04-16T14:40:57.969Z,21.80
2023-04-16T14:43:24.779Z,7.68
2023-04-16T14:45:52.575Z,9.88
2023-04-16T14:48:19.710Z,5.13
2023-04-16T14:50:46.575Z,11.25
2023-04-16T14:53:13.351Z,51.37
2023-04-16T14:55:40.258Z,51.75
2023-04-16T14:58:07.062Z,158.98
2023-04-16T15:00:36.961Z,247.70
2023-04-16T15:03:04.285Z,174.50
2023-04-16T15:05:31.748Z,574.47
2023-04-16T15:07:58.547Z,615.60
2023-04-16T15:10:25.457Z,975.47
2023-04-16T15:12:52.257Z,999.90
2023-04-16T15:15:19.226Z,998.42
2023-04-16T15:17:46.137Z,988.25
2023-04-16T15:25:07.122Z,982.05
2023-04-16T15:27:33.864Z,103.65
2023-04-16T15:30:00.827Z,0.53
2023-04-16T15:32:27.754Z,0.73
2023-04-16T15:34:54.476Z,1.00
2023-04-16T15:37:21.326Z,0.73
2023-04-16T15:39:48.453Z,0.85
2023-04-16T15:42:15.598Z,1.40
2023-04-16T15:44:42.308Z,1.10
2023-04-16T15:47:09.286Z,0.80
2023-04-16T15:49:36.342Z,0.70
2023-04-16T15:52:03.326Z,0.80
2023-04-16T15:54:31.666Z,0.80
2023-04-16T15:56:58.769Z,0.60
2023-04-16T15:59:26.783Z,0.50
2023-04-16T16:01:53.738Z,0.50
2023-04-16T16:04:22.822Z,0.90
2023-04-16T16:06:50.655Z,0.60
2023-04-16T16:09:17.711Z,0.70
2023-04-16T16:11:44.495Z,0.65
2023-04-16T16:14:11.430Z,0.63
2023-04-16T16:16:39.470Z,0.70
2023-04-16T16:19:06.881Z,0.50
2023-04-16T16:21:33.747Z,0.60
2023-04-16T16:24:00.846Z,0.63
2023-04-16T16:26:27.992Z,0.60
2023-04-16T16:28:54.759Z,0.57
2023-04-16T16:31:21.611Z,0.75
2023-04-16T16:33:48.435Z,0.60
2023-04-16T16:36:15.268Z,0.80
2023-04-16T16:38:42.396Z,0.75
2023-04-16T16:41:09.275Z,0.80
2023-04-16T16:43:38.860Z,0.90
2023-04-16T16:46:07.294Z,0.50
2023-04-16T16:48:34.031Z,0.80
2023-04-16T16:51:01.011Z,0.75
2023-04-16T16:53:27.744Z,0.90
2023-04-16T16:55:54.503Z,0.80
2023-04-16T16:58:21.299Z,0.93
2023-04-16T17:00:48.084Z,0.90
2023-04-16T17:03:15.071Z,0.82
2023-04-16T17:05:41.985Z,0.90
2023-04-16T17:08:08.777Z,2.00
2023-04-16T17:10:35.833Z,2.78
2023-04-16T17:13:02.793Z,3.42
2023-04-16T17:15:29.639Z,4.32
2023-04-16T17:17:57.148Z,1.20
2023-04-16T17:20:24.138Z,1.10
2023-04-16T17:22:51.181Z,1.40
2023-04-16T17:25:18.079Z,1.83
2023-04-16T17:27:44.871Z,1.33
2023-04-16T17:30:11.897Z,1.08
2023-04-16T17:32:38.883Z,1.10
2023-04-16T17:35:06.846Z,6.50
2023-04-16T17:37:34.121Z,1.08
2023-04-16T17:40:00.983Z,1.03
2023-04-16T17:42:27.862Z,1.30
2023-04-16T17:44:54.728Z,1.20
2023-04-16T17:47:21.639Z,0.80
2023-04-16T17:49:48.512Z,0.82
2023-04-16T17:52:15.297Z,1.00
2023-04-16T17:54:42.270Z,0.90
2023-04-16T17:57:09.177Z,1.50
2023-04-16T17:59:35.891Z,1.10
2023-04-16T18:02:02.669Z,1.40
2023-04-16T18:04:29.785Z,1.40
2023-04-16T18:06:56.875Z,0.70
2023-04-16T18:09:23.644Z,0.85
2023-04-16T18:11:50.476Z,0.70
2023-04-16T18:14:19.935Z,1.00
2023-04-16T18:16:48.231Z,1.20
2023-04-16T18:19:18.380Z,0.80
2023-04-16T18:21:45.523Z,1.67
2023-04-16T18:24:12.520Z,1.10
2023-04-16T18:26:40.963Z,0.98
2023-04-16T18:29:08.224Z,1.10
2023-04-16T18:31:36.037Z,1.00
2023-04-16T18:34:02.977Z,0.95
2023-04-16T18:36:29.870Z,1.10
2023-04-16T18:39:02.225Z,0.95
2023-04-16T18:41:31.241Z,1.00
2023-04-16T18:43:58.110Z,1.00
2023-04-16T18:46:25.303Z,1.17
2023-04-16T18:48:52.316Z,1.00
2023-04-16T18:51:19.695Z,0.90
2023-04-16T18:53:46.422Z,1.33
2023-04-16T18:56:13.293Z,1.10
2023-04-16T18:58:40.136Z,1.10
2023-04-16T19:01:11.138Z,1.10
2023-04-16T19:03:38.688Z,1.30
2023-04-16T19:06:06.178Z,1.20
2023-04-16T19:08:33.080Z,0.93
2023-04-16T19:11:00.888Z,1.05
2023-04-16T19:13:27.858Z,1.05
2023-04-16T19:16:01.054Z,1.33
2023-04-16T19:18:27.933Z,1.10
2023-04-16T19:21:01.484Z,1.30
2023-04-16T19:23:28.788Z,1.38
2023-04-16T19:25:56.704Z,1.50
2023-04-16T19:28:24.266Z,1.58
2023-04-16T19:30:51.885Z,1.23
2023-04-16T19:33:18.903Z,1.10
2023-04-16T19:35:46.677Z,0.90
2023-04-16T19:38:13.638Z,1.02
2023-04-16T19:40:41.025Z,0.88
2023-04-16T19:43:07.904Z,1.20
2023-04-16T19:45:35.013Z,1.10
2023-04-16T19:48:01.827Z,1.00
2023-04-16T19:50:28.617Z,1.03
2023-04-16T19:52:55.567Z,0.85
2023-04-16T19:55:22.649Z,0.90
2023-04-16T19:57:49.397Z,1.60
2023-04-16T20:00:16.994Z,0.93
2023-04-16T20:02:43.923Z,0.77
2023-04-16T20:05:10.865Z,0.70
2023-04-16T20:07:37.630Z,0.90
2023-04-16T20:10:04.754Z,0.90
2023-04-16T20:12:32.040Z,1.00
2023-04-16T20:14:59.012Z,0.80
2023-04-16T20:17:26.835Z,0.70
2023-04-16T20:19:53.630Z,0.80
2023-04-16T20:22:20.405Z,0.70
2023-04-16T20:24:48.146Z,0.90
2023-04-16T20:27:15.492Z,0.80
2023-04-16T20:29:42.415Z,0.88
2023-04-16T20:32:09.286Z,0.70
2023-04-16T20:34:37.872Z,0.70
2023-04-16T20:37:04.943Z,0.80
2023-04-16T20:39:34.056Z,0.70
2023-04-16T20:42:04.106Z,0.80
2023-04-16T20:44:40.725Z,0.90
2023-04-16T20:47:09.206Z,0.80
2023-04-16T20:49:36.095Z,0.80
2023-04-16T20:52:02.964Z,0.70
2023-04-16T20:54:30.784Z,0.77
2023-04-16T20:56:57.838Z,0.90
2023-04-16T20:59:24.761Z,0.70
2023-04-16T21:01:54.890Z,0.88
2023-04-16T21:04:21.766Z,0.90
2023-04-16T21:06:49.115Z,0.90
2023-04-16T21:09:16.417Z,0.90
2023-04-16T21:11:43.075Z,0.70
2023-04-16T21:14:09.869Z,0.60
2023-04-16T21:16:36.650Z,0.90
2023-04-16T21:19:03.465Z,0.75
2023-04-16T21:21:31.849Z,0.70
2023-04-16T21:23:58.814Z,0.70
2023-04-16T21:26:25.775Z,0.80
2023-04-16T21:28:54.563Z,0.68
2023-04-16T21:31:21.951Z,0.73
2023-04-16T21:33:48.776Z,0.80
2023-04-16T21:36:15.636Z,0.70
2023-04-16T21:38:42.345Z,0.70
2023-04-16T21:41:09.130Z,0.77
2023-04-16T21:43:35.936Z,0.82
2023-04-16T21:46:02.921Z,0.65
2023-04-16T21:48:29.610Z,0.70
2023-04-16T21:51:06.099Z,0.90
2023-04-16T21:53:33.492Z,0.70
2023-04-16T21:56:00.626Z,0.80
2023-04-16T21:58:27.489Z,1.00
2023-04-16T22:00:54.382Z,0.70
2023-04-16T22:03:28.200Z,0.63
2023-04-16T22:06:00.729Z,0.80
2023-04-16T22:08:28.781Z,0.80
2023-04-16T22:11:00.168Z,0.73
2023-04-16T22:13:28.189Z,0.80
2023-04-16T22:15:55.551Z,0.60
2023-04-16T22:18:25.444Z,0.73
2023-04-16T22:20:56.194Z,0.80
2023-04-16T22:23:25.962Z,0.70
2023-04-16T22:25:54.906Z,0.90
2023-04-16T22:28:22.026Z,0.80
2023-04-16T22:30:48.800Z,0.80
2023-04-16T22:33:15.816Z,0.70
2023-04-16T22:35:42.654Z,0.80
2023-04-16T22:38:10.063Z,0.80
2023-04-16T22:40:36.896Z,0.75
2023-04-16T22:43:04.812Z,0.73
2023-04-16T22:45:31.688Z,0.80
2023-04-16T22:47:58.662Z,0.68
2023-04-16T22:50:25.579Z,0.80
2023-04-16T22:52:52.372Z,0.70
2023-04-16T22:55:19.346Z,0.70
2023-04-16T22:57:47.342Z,0.95
2023-04-16T23:00:16.426Z,0.70
2023-04-16T23:02:43.832Z,0.80
2023-04-16T23:05:11.578Z,0.70
2023-04-16T23:07:38.420Z,0.80
2023-04-16T23:10:05.754Z,0.80
2023-04-16T23:12:32.580Z,0.85
2023-04-16T23:15:00.440Z,0.70
2023-04-16T23:17:27.901Z,0.95
2023-04-16T23:19:54.886Z,0.73
2023-04-16T23:22:21.821Z,0.70
2023-04-16T23:24:48.610Z,0.80
2023-04-16T23:27:15.541Z,0.80
2023-04-16T23:29:42.287Z,0.80
2023-04-16T23:32:09.040Z,0.70
2023-04-16T23:34:36.120Z,0.73
2023-04-16T23:37:02.795Z,0.87
2023-04-16T23:39:29.500Z,0.80
2023-04-16T23:41:57.471Z,0.80
2023-04-16T23:44:24.325Z,0.75
2023-04-16T23:46:51.200Z,0.80
2023-04-16T23:49:17.958Z,0.90
2023-04-16T23:51:44.723Z,0.85
2023-04-16T23:54:11.451Z,0.83
2023-04-16T23:56:38.282Z,0.80
2023-04-16T23:59:05.180Z,0.68
